Time;durP1;ratioP1;P1;durP2;ratioP2;P2;SDS_P1;SDS_P2;PMS_P1;PMS_P2;Temp;Humidity;BMP_temperature;BMP_pressure;BME280_temperature;BME280_humidity;BME280_pressure;Samples;Min_cycle;Max_cycle;Signal;HPM_P1;HPM_P2
2022/01/31 00:00:51;;;;;;;7.17;3.70;;;;;;;;;;5055144;28;20510;-73
2022/01/31 00:03:17;;;;;;;6.87;3.70;;;;;;;;;;5088498;28;20469;-73
2022/01/31 00:05:43;;;;;;;8.63;3.70;;;;;;;;;;5093322;28;20427;-71
2022/01/31 00:08:09;;;;;;;7.63;3.60;;;;;;;;;;5093308;28;20404;-69
2022/01/31 00:10:35;;;;;;;7.87;3.87;;;;;;;;;;5093349;28;20922;-69
2022/01/31 00:13:07;;;;;;;10.53;3.87;;;;;;;;;;5093256;28;20404;-69
2022/01/31 00:15:39;;;;;;;10.00;3.50;;;;;;;;;;5092142;28;20400;-68
2022/01/31 00:18:05;;;;;;;8.13;3.30;;;;;;;;;;5093309;28;20414;-68
2022/01/31 00:20:31;;;;;;;8.60;3.53;;;;;;;;;;5093220;28;20452;-72
2022/01/31 00:22:57;;;;;;;8.63;3.77;;;;;;;;;;5093201;28;20414;-68
2022/01/31 00:25:23;;;;;;;9.13;3.93;;;;;;;;;;5093086;28;20474;-70
2022/01/31 00:27:49;;;;;;;7.40;3.57;;;;;;;;;;5093258;28;20413;-69
2022/01/31 00:30:16;;;;;;;5.33;3.20;;;;;;;;;;5091857;28;20809;-67
2022/01/31 00:32:42;;;;;;;14.20;4.10;;;;;;;;;;5093055;28;20405;-67
2022/01/31 00:35:09;;;;;;;11.13;4.27;;;;;;;;;;5093150;28;20401;-69
2022/01/31 00:37:35;;;;;;;9.60;3.50;;;;;;;;;;5093047;28;20477;-70
2022/01/31 00:40:01;;;;;;;11.57;3.53;;;;;;;;;;5093117;28;20943;-69
2022/01/31 00:42:28;;;;;;;13.73;4.00;;;;;;;;;;5091748;28;20428;-68
2022/01/31 00:44:59;;;;;;;9.40;5.13;;;;;;;;;;5092993;28;20466;-68
2022/01/31 00:47:27;;;;;;;8.33;3.30;;;;;;;;;;5092974;28;20422;-73
2022/01/31 00:50:08;;;;;;;11.27;4.17;;;;;;;;;;5091673;28;20412;-72
2022/01/31 00:52:34;;;;;;;17.40;3.80;;;;;;;;;;5093108;28;20762;-73
2022/01/31 00:55:01;;;;;;;7.30;4.10;;;;;;;;;;5092879;28;20413;-73
2022/01/31 00:57:27;;;;;;;13.20;4.70;;;;;;;;;;5092913;28;20412;-72
2022/01/31 00:59:54;;;;;;;13.30;4.10;;;;;;;;;;5092833;28;20431;-73
2022/01/31 01:02:23;;;;;;;5.67;3.70;;;;;;;;;;5084226;28;21006;-71
2022/01/31 01:04:49;;;;;;;12.60;4.40;;;;;;;;;;5076323;28;20865;-72
2022/01/31 01:07:15;;;;;;;10.10;3.93;;;;;;;;;;5076234;28;20428;-72
2022/01/31 01:09:42;;;;;;;8.87;4.40;;;;;;;;;;5076333;28;20427;-72
2022/01/31 01:12:09;;;;;;;11.90;4.50;;;;;;;;;;5076229;28;20493;-72
2022/01/31 01:14:35;;;;;;;15.30;4.17;;;;;;;;;;5058210;28;20505;-73
2022/01/31 01:17:01;;;;;;;8.20;3.60;;;;;;;;;;5076090;28;20421;-71
2022/01/31 01:19:27;;;;;;;9.50;4.20;;;;;;;;;;5076101;28;20412;-67
2022/01/31 01:21:53;;;;;;;6.47;4.50;;;;;;;;;;5075987;28;20469;-67
2022/01/31 01:24:19;;;;;;;10.20;4.03;;;;;;;;;;5076023;28;20399;-70
2022/01/31 01:26:46;;;;;;;11.03;3.93;;;;;;;;;;5075983;28;20450;-68
2022/01/31 01:29:12;;;;;;;17.10;4.70;;;;;;;;;;5075917;28;20405;-69
2022/01/31 01:31:39;;;;;;;8.10;3.87;;;;;;;;;;5057886;28;20422;-68
2022/01/31 01:34:05;;;;;;;13.03;4.00;;;;;;;;;;5057942;28;20772;-69
2022/01/31 01:36:32;;;;;;;11.03;4.13;;;;;;;;;;5075804;28;20505;-69
2022/01/31 01:38:58;;;;;;;6.20;3.93;;;;;;;;;;5075891;28;20433;-69
2022/01/31 01:41:24;;;;;;;9.43;3.83;;;;;;;;;;5057849;28;20469;-67
2022/01/31 01:43:50;;;;;;;10.10;4.23;;;;;;;;;;5075759;28;20479;-68
2022/01/31 01:46:16;;;;;;;10.50;4.17;;;;;;;;;;5075532;28;20892;-74
2022/01/31 01:48:42;;;;;;;10.20;4.37;;;;;;;;;;5075628;28;20441;-74
2022/01/31 01:51:08;;;;;;;8.60;4.07;;;;;;;;;;5075605;28;20760;-73
2022/01/31 01:53:34;;;;;;;7.90;3.97;;;;;;;;;;5075488;28;20484;-74
2022/01/31 01:56:00;;;;;;;7.60;3.70;;;;;;;;;;5075380;28;20459;-73
2022/01/31 01:58:30;;;;;;;10.70;4.63;;;;;;;;;;5075383;28;20828;-76
2022/01/31 02:00:59;;;;;;;12.47;4.07;;;;;;;;;;5075256;28;20464;-74
2022/01/31 02:03:27;;;;;;;10.80;4.63;;;;;;;;;;5075123;28;20460;-73
2022/01/31 02:05:53;;;;;;;13.27;4.87;;;;;;;;;;5057407;28;20475;-74
2022/01/31 02:08:20;;;;;;;8.50;4.13;;;;;;;;;;5075326;28;20433;-76
2022/01/31 02:10:46;;;;;;;9.03;4.30;;;;;;;;;;5075274;28;20421;-74
2022/01/31 02:13:15;;;;;;;11.00;4.00;;;;;;;;;;5075082;28;20880;-74
2022/01/31 02:15:41;;;;;;;10.43;4.27;;;;;;;;;;5056504;28;20919;-73
2022/01/31 02:18:07;;;;;;;12.10;4.90;;;;;;;;;;5057214;28;20406;-73
2022/01/31 02:20:40;;;;;;;8.77;4.60;;;;;;;;;;5074859;28;20804;-73
2022/01/31 02:23:07;;;;;;;15.60;3.93;;;;;;;;;;5075007;28;20401;-74
2022/01/31 02:25:34;;;;;;;8.07;4.80;;;;;;;;;;5074815;28;20394;-75
2022/01/31 02:28:00;;;;;;;12.50;4.40;;;;;;;;;;5074815;28;20487;-73
2022/01/31 02:30:26;;;;;;;11.80;4.13;;;;;;;;;;5056473;28;20413;-68
2022/01/31 02:32:52;;;;;;;13.97;4.57;;;;;;;;;;5074793;28;20399;-68
2022/01/31 02:35:18;;;;;;;7.57;4.10;;;;;;;;;;5074668;28;20402;-69
2022/01/31 02:37:44;;;;;;;9.03;5.23;;;;;;;;;;5056710;28;20504;-67
2022/01/31 02:40:10;;;;;;;11.10;4.00;;;;;;;;;;5074607;28;20408;-69
2022/01/31 02:42:36;;;;;;;11.90;4.27;;;;;;;;;;5074703;28;20440;-67
2022/01/31 02:45:05;;;;;;;11.10;3.90;;;;;;;;;;5074454;28;20486;-74
2022/01/31 02:47:36;;;;;;;7.60;3.70;;;;;;;;;;5074524;28;20426;-72
2022/01/31 02:50:06;;;;;;;10.93;4.47;;;;;;;;;;5074545;28;20447;-74
2022/01/31 02:52:35;;;;;;;9.67;4.10;;;;;;;;;;5074279;28;20816;-73
2022/01/31 02:55:02;;;;;;;6.73;3.90;;;;;;;;;;5056353;28;20417;-73
2022/01/31 02:57:28;;;;;;;8.60;4.20;;;;;;;;;;5074279;28;20405;-74
2022/01/31 02:59:54;;;;;;;6.47;4.13;;;;;;;;;;5074147;28;20406;-73
2022/01/31 03:02:20;;;;;;;8.70;4.13;;;;;;;;;;5073915;28;20473;-73
2022/01/31 03:04:46;;;;;;;6.57;4.63;;;;;;;;;;5074241;28;20894;-72
2022/01/31 03:07:12;;;;;;;6.93;4.60;;;;;;;;;;5073942;28;20410;-73
2022/01/31 03:09:38;;;;;;;11.43;5.07;;;;;;;;;;5074136;28;20417;-73
2022/01/31 03:12:04;;;;;;;5.63;3.57;;;;;;;;;;5073932;28;20399;-74
2022/01/31 03:14:31;;;;;;;9.03;4.50;;;;;;;;;;5074020;28;20499;-74
2022/01/31 03:16:57;;;;;;;13.97;3.97;;;;;;;;;;5073922;28;20441;-72
2022/01/31 03:19:23;;;;;;;5.30;3.30;;;;;;;;;;5073870;28;20488;-73
2022/01/31 03:21:51;;;;;;;4.13;3.23;;;;;;;;;;5055803;28;20468;-73
2022/01/31 03:24:17;;;;;;;11.60;4.20;;;;;;;;;;5073737;28;20835;-71
2022/01/31 03:26:43;;;;;;;8.20;4.67;;;;;;;;;;5072989;28;20453;-68
2022/01/31 03:29:09;;;;;;;11.20;4.43;;;;;;;;;;5073730;28;20426;-70
2022/01/31 03:31:35;;;;;;;9.83;4.30;;;;;;;;;;5073475;28;20418;-68
2022/01/31 03:34:01;;;;;;;6.07;3.60;;;;;;;;;;5073532;28;20413;-70
2022/01/31 03:36:27;;;;;;;9.30;4.00;;;;;;;;;;5073560;28;20410;-72
2022/01/31 03:38:53;;;;;;;10.90;4.60;;;;;;;;;;5073585;28;20916;-73
2022/01/31 03:41:20;;;;;;;8.67;4.30;;;;;;;;;;5073382;28;20522;-74
2022/01/31 03:43:46;;;;;;;12.70;4.53;;;;;;;;;;5055489;28;20413;-73
2022/01/31 03:46:13;;;;;;;6.70;4.43;;;;;;;;;;5073370;28;20413;-74
2022/01/31 03:48:41;;;;;;;13.10;4.77;;;;;;;;;;5073414;28;20409;-74
2022/01/31 03:51:07;;;;;;;6.40;3.60;;;;;;;;;;5073294;28;20499;-74
2022/01/31 03:53:32;;;;;;;7.30;3.90;;;;;;;;;;5073288;28;20502;-75
2022/01/31 03:55:59;;;;;;;11.33;4.20;;;;;;;;;;5073137;28;20505;-74
2022/01/31 03:58:25;;;;;;;6.47;3.87;;;;;;;;;;5073371;28;20801;-75
2022/01/31 04:00:51;;;;;;;9.03;3.67;;;;;;;;;;5073034;28;20500;-74
2022/01/31 04:03:17;;;;;;;10.63;4.17;;;;;;;;;;5073107;28;20473;-74
2022/01/31 04:05:43;;;;;;;11.50;3.97;;;;;;;;;;5073214;28;20464;-73
2022/01/31 04:08:11;;;;;;;7.63;3.90;;;;;;;;;;5073125;28;20410;-73
2022/01/31 04:10:37;;;;;;;7.27;3.63;;;;;;;;;;5072946;28;20735;-72
2022/01/31 04:13:06;;;;;;;8.23;4.10;;;;;;;;;;5073137;28;20957;-73
2022/01/31 04:15:32;;;;;;;5.40;3.60;;;;;;;;;;5073052;28;20442;-73
2022/01/31 04:17:58;;;;;;;11.47;4.17;;;;;;;;;;5055296;28;20418;-73
2022/01/31 04:20:24;;;;;;;10.63;4.50;;;;;;;;;;5072950;28;20932;-73
2022/01/31 04:22:58;;;;;;;11.83;5.10;;;;;;;;;;5055107;28;20480;-72
2022/01/31 04:26:07;;;;;;;12.20;4.13;;;;;;;;;;5072970;28;20404;-73
2022/01/31 04:28:23;;;;;;;11.27;3.60;;;;;;;;;;5067971;28;20413;-69
2022/01/31 04:30:56;;;;;;;7.73;3.13;;;;;;;;;;5072833;28;21689;-67
2022/01/31 04:33:22;;;;;;;7.03;3.37;;;;;;;;;;5073016;28;20505;-73
2022/01/31 04:35:48;;;;;;;8.97;3.27;;;;;;;;;;5054879;28;20832;-73
2022/01/31 04:38:15;;;;;;;7.60;3.57;;;;;;;;;;5074116;28;20420;-72
2022/01/31 04:40:41;;;;;;;15.67;4.40;;;;;;;;;;5076731;28;20454;-73
2022/01/31 04:43:07;;;;;;;8.80;3.70;;;;;;;;;;5076802;28;20401;-73
2022/01/31 04:45:33;;;;;;;10.10;3.47;;;;;;;;;;5076738;28;20402;-72
2022/01/31 04:47:59;;;;;;;8.43;3.20;;;;;;;;;;5076743;28;20412;-68
2022/01/31 04:50:25;;;;;;;5.27;3.50;;;;;;;;;;5076653;28;20492;-69
2022/01/31 04:52:51;;;;;;;11.20;3.10;;;;;;;;;;5076707;28;20408;-69
2022/01/31 04:55:17;;;;;;;9.47;3.53;;;;;;;;;;5076517;28;20475;-71
2022/01/31 04:57:43;;;;;;;6.73;3.20;;;;;;;;;;5076718;28;20498;-67
2022/01/31 05:00:09;;;;;;;9.77;3.57;;;;;;;;;;5076446;28;20410;-68
2022/01/31 05:02:36;;;;;;;11.13;3.77;;;;;;;;;;5076337;28;20552;-68
2022/01/31 05:05:03;;;;;;;4.90;3.63;;;;;;;;;;5076348;28;20429;-67
2022/01/31 05:07:29;;;;;;;8.37;3.50;;;;;;;;;;5076422;28;20463;-67
2022/01/31 05:09:55;;;;;;;10.00;4.30;;;;;;;;;;5076240;28;20421;-68
2022/01/31 05:12:22;;;;;;;8.83;3.90;;;;;;;;;;5076124;28;20496;-67
2022/01/31 05:14:48;;;;;;;9.33;3.93;;;;;;;;;;5076233;28;20417;-70
2022/01/31 05:17:14;;;;;;;7.60;4.20;;;;;;;;;;5076199;28;20412;-68
2022/01/31 05:19:40;;;;;;;8.87;3.50;;;;;;;;;;5076139;28;20410;-69
2022/01/31 05:22:06;;;;;;;5.63;3.90;;;;;;;;;;5075986;28;20951;-67
2022/01/31 05:24:32;;;;;;;6.33;3.57;;;;;;;;;;5076026;28;20416;-67
2022/01/31 05:26:58;;;;;;;8.20;3.87;;;;;;;;;;5076022;28;20410;-68
2022/01/31 05:29:24;;;;;;;5.63;3.30;;;;;;;;;;5057903;28;20885;-67
2022/01/31 05:31:52;;;;;;;6.80;3.40;;;;;;;;;;5057749;28;20422;-72
2022/01/31 05:34:18;;;;;;;12.23;5.23;;;;;;;;;;5075961;28;20402;-74
2022/01/31 05:36:45;;;;;;;6.80;4.03;;;;;;;;;;5075529;28;20916;-72
2022/01/31 05:39:11;;;;;;;10.63;4.17;;;;;;;;;;5075791;28;20394;-72
2022/01/31 05:41:37;;;;;;;6.13;3.10;;;;;;;;;;5075589;28;20531;-73
2022/01/31 05:44:03;;;;;;;4.60;3.30;;;;;;;;;;5075605;28;20899;-72
2022/01/31 05:46:29;;;;;;;6.63;3.33;;;;;;;;;;5075668;28;20402;-72
2022/01/31 05:48:55;;;;;;;8.57;3.53;;;;;;;;;;5075382;28;20402;-74
2022/01/31 05:51:22;;;;;;;5.67;3.30;;;;;;;;;;5074676;28;20420;-72
2022/01/31 05:53:49;;;;;;;9.87;3.37;;;;;;;;;;5075501;28;20435;-73
2022/01/31 05:56:16;;;;;;;8.00;3.20;;;;;;;;;;5075416;28;20402;-73
2022/01/31 05:58:42;;;;;;;5.70;3.40;;;;;;;;;;5057461;28;20893;-74
2022/01/31 06:01:08;;;;;;;7.47;3.00;;;;;;;;;;5075239;28;20468;-69
2022/01/31 06:03:34;;;;;;;4.37;3.17;;;;;;;;;;5075243;28;20556;-73
2022/01/31 06:06:00;;;;;;;5.37;2.87;;;;;;;;;;5075220;28;20879;-74
2022/01/31 06:08:26;;;;;;;6.73;3.70;;;;;;;;;;5075157;28;20401;-73
2022/01/31 06:10:53;;;;;;;9.73;4.33;;;;;;;;;;5057077;28;20414;-74
2022/01/31 06:13:25;;;;;;;7.60;3.10;;;;;;;;;;5075179;28;20467;-73
2022/01/31 06:15:51;;;;;;;7.80;3.20;;;;;;;;;;5075048;28;20890;-73
2022/01/31 06:18:17;;;;;;;8.03;3.30;;;;;;;;;;5075082;28;20401;-68
2022/01/31 06:20:44;;;;;;;6.30;2.90;;;;;;;;;;5074955;28;20462;-69
2022/01/31 06:23:13;;;;;;;5.10;3.20;;;;;;;;;;5074931;28;20442;-67
2022/01/31 06:25:39;;;;;;;4.20;2.67;;;;;;;;;;5074789;28;20433;-67
2022/01/31 06:28:06;;;;;;;8.50;3.23;;;;;;;;;;5075014;28;20732;-67
2022/01/31 06:30:33;;;;;;;4.93;3.10;;;;;;;;;;5074801;28;20398;-73
2022/01/31 06:32:59;;;;;;;7.47;3.47;;;;;;;;;;5074784;28;20402;-73
2022/01/31 06:35:25;;;;;;;9.20;3.60;;;;;;;;;;5074657;28;20473;-73
2022/01/31 06:37:54;;;;;;;8.10;3.90;;;;;;;;;;5074734;28;20441;-67
2022/01/31 06:40:20;;;;;;;10.73;3.70;;;;;;;;;;5074610;28;20403;-69
2022/01/31 06:42:46;;;;;;;10.47;3.90;;;;;;;;;;5074495;28;20404;-69
2022/01/31 06:45:14;;;;;;;10.80;4.10;;;;;;;;;;5074461;28;20413;-66
2022/01/31 06:47:40;;;;;;;5.57;3.27;;;;;;;;;;5074435;28;20420;-69
2022/01/31 06:50:07;;;;;;;13.43;4.20;;;;;;;;;;5074284;28;20411;-67
2022/01/31 06:52:35;;;;;;;10.07;3.50;;;;;;;;;;5074421;28;20410;-69
2022/01/31 06:55:04;;;;;;;15.03;4.13;;;;;;;;;;5074252;28;20497;-68
2022/01/31 06:57:33;;;;;;;9.07;5.23;;;;;;;;;;5056363;28;20421;-70
2022/01/31 07:00:05;;;;;;;8.00;3.20;;;;;;;;;;5074196;28;20799;-71
2022/01/31 07:02:31;;;;;;;12.33;3.77;;;;;;;;;;5073789;28;20456;-69
2022/01/31 07:04:57;;;;;;;13.73;4.20;;;;;;;;;;5056068;28;20410;-68
2022/01/31 07:07:23;;;;;;;10.63;3.77;;;;;;;;;;5073996;28;20405;-68
2022/01/31 07:09:49;;;;;;;10.77;3.70;;;;;;;;;;5056250;28;20410;-67
2022/01/31 07:12:17;;;;;;;6.30;3.80;;;;;;;;;;5073807;28;20409;-68
2022/01/31 07:14:43;;;;;;;4.93;3.20;;;;;;;;;;5073828;28;20405;-67
2022/01/31 07:17:09;;;;;;;6.50;3.20;;;;;;;;;;5073841;28;20921;-66
2022/01/31 07:19:38;;;;;;;5.23;3.00;;;;;;;;;;5073898;28;20943;-66
2022/01/31 07:22:07;;;;;;;12.50;3.83;;;;;;;;;;5073765;28;20931;-74
2022/01/31 07:27:03;;;;;;;6.50;3.20;;;;;;;;;;5073745;28;20467;-74
2022/01/31 07:29:29;;;;;;;6.70;2.90;;;;;;;;;;5073603;28;20402;-74
2022/01/31 07:31:56;;;;;;;6.63;2.80;;;;;;;;;;5073424;28;20435;-71
2022/01/31 07:34:22;;;;;;;5.97;2.93;;;;;;;;;;5073676;28;20413;-75
2022/01/31 07:36:49;;;;;;;4.40;2.67;;;;;;;;;;5073543;28;20412;-73
2022/01/31 07:39:15;;;;;;;5.63;2.93;;;;;;;;;;5073504;28;20475;-73
2022/01/31 07:41:42;;;;;;;4.90;2.53;;;;;;;;;;5073426;28;20535;-69
2022/01/31 07:44:08;;;;;;;6.30;2.80;;;;;;;;;;5073558;28;20402;-71
2022/01/31 07:46:34;;;;;;;4.17;2.37;;;;;;;;;;5073392;28;20875;-72
2022/01/31 07:49:00;;;;;;;6.97;2.17;;;;;;;;;;5073362;28;20485;-68
2022/01/31 07:51:26;;;;;;;4.60;2.63;;;;;;;;;;5073201;28;20811;-70
2022/01/31 07:53:52;;;;;;;3.67;2.27;;;;;;;;;;5073331;28;20386;-67
2022/01/31 07:56:20;;;;;;;4.57;2.27;;;;;;;;;;5073381;28;20400;-71
2022/01/31 07:58:46;;;;;;;1.90;1.60;;;;;;;;;;5073242;28;20382;-68
2022/01/31 08:01:12;;;;;;;2.40;2.20;;;;;;;;;;5073199;28;20468;-69
2022/01/31 08:03:38;;;;;;;2.60;1.90;;;;;;;;;;5073192;28;20449;-70
2022/01/31 08:06:04;;;;;;;4.93;2.10;;;;;;;;;;5073211;28;20421;-69
2022/01/31 08:08:31;;;;;;;1.98;1.70;;;;;;;;;;5073143;28;20440;-70
2022/01/31 08:10:57;;;;;;;2.20;1.63;;;;;;;;;;5072996;28;20585;-71
2022/01/31 08:13:27;;;;;;;3.73;1.80;;;;;;;;;;5054752;28;20782;-71
2022/01/31 08:16:03;;;;;;;7.97;2.10;;;;;;;;;;5073174;28;20763;-70
2022/01/31 08:18:29;;;;;;;1.90;1.70;;;;;;;;;;5073210;28;20430;-69
2022/01/31 08:20:55;;;;;;;2.07;1.63;;;;;;;;;;5072987;28;20556;-75
2022/01/31 08:23:21;;;;;;;2.50;1.47;;;;;;;;;;5073050;28;20481;-73
2022/01/31 08:25:49;;;;;;;1.60;1.50;;;;;;;;;;5072874;28;20772;-70
2022/01/31 08:28:20;;;;;;;1.93;1.27;;;;;;;;;;5072983;28;20413;-74
2022/01/31 08:30:56;;;;;;;1.20;1.10;;;;;;;;;;5072814;28;20454;-75
2022/01/31 08:33:47;;;;;;;2.03;1.20;;;;;;;;;;5073015;28;20413;-73
2022/01/31 08:36:11;;;;;;;1.70;1.20;;;;;;;;;;5072370;28;20441;-71
2022/01/31 08:38:39;;;;;;;1.03;0.77;;;;;;;;;;5072958;28;20397;-71
2022/01/31 08:41:06;;;;;;;1.23;1.13;;;;;;;;;;5072871;28;20947;-68
2022/01/31 08:43:33;;;;;;;0.97;0.97;;;;;;;;;;5072864;28;20401;-70
2022/01/31 08:46:00;;;;;;;1.17;1.00;;;;;;;;;;5072746;28;20463;-72
2022/01/31 08:48:27;;;;;;;1.10;1.10;;;;;;;;;;5072718;28;20416;-68
2022/01/31 08:50:54;;;;;;;3.80;1.10;;;;;;;;;;5054609;28;20478;-75
2022/01/31 08:53:20;;;;;;;2.77;1.40;;;;;;;;;;5072727;28;20409;-70
2022/01/31 08:55:48;;;;;;;1.23;1.07;;;;;;;;;;5072550;28;20915;-67
2022/01/31 08:58:14;;;;;;;2.80;1.50;;;;;;;;;;5072701;28;20409;-68
2022/01/31 09:00:41;;;;;;;0.83;0.73;;;;;;;;;;5072595;28;20813;-72
2022/01/31 09:05:33;;;;;;;1.10;1.00;;;;;;;;;;5072485;28;20406;-69
2022/01/31 09:07:59;;;;;;;1.33;1.13;;;;;;;;;;5072595;28;20509;-67
2022/01/31 09:10:25;;;;;;;0.83;0.83;;;;;;;;;;5054645;28;20451;-70
2022/01/31 09:12:51;;;;;;;1.57;1.07;;;;;;;;;;5072479;28;20517;-69
2022/01/31 09:15:17;;;;;;;1.13;1.03;;;;;;;;;;5072543;28;20406;-67
2022/01/31 09:17:43;;;;;;;1.20;1.10;;;;;;;;;;5054477;28;20448;-69
2022/01/31 09:20:10;;;;;;;1.10;1.00;;;;;;;;;;5072384;28;20406;-72
2022/01/31 09:22:36;;;;;;;2.70;1.03;;;;;;;;;;5072290;28;20497;-72
2022/01/31 09:25:02;;;;;;;3.30;1.03;;;;;;;;;;5073143;28;20406;-68
2022/01/31 09:27:28;;;;;;;2.30;1.03;;;;;;;;;;5076004;28;20505;-70
2022/01/31 09:29:54;;;;;;;1.40;1.30;;;;;;;;;;5075897;28;20465;-68
2022/01/31 09:32:24;;;;;;;1.17;1.07;;;;;;;;;;5057756;28;20986;-69
2022/01/31 09:34:50;;;;;;;1.60;1.20;;;;;;;;;;5075812;28;20787;-68
2022/01/31 09:37:16;;;;;;;4.77;1.30;;;;;;;;;;5075882;28;20406;-70
2022/01/31 09:39:45;;;;;;;2.33;1.40;;;;;;;;;;5075816;28;20413;-68
2022/01/31 09:42:14;;;;;;;1.47;1.37;;;;;;;;;;5075766;28;20472;-75
2022/01/31 09:44:51;;;;;;;2.10;1.50;;;;;;;;;;5075688;28;20810;-68
2022/01/31 09:48:32;;;;;;;1.63;1.53;;;;;;;;;;5057674;28;20421;-67
2022/01/31 09:50:04;;;;;;;3.73;1.50;;;;;;;;;;5073971;28;20413;-67
2022/01/31 09:52:30;;;;;;;1.40;1.30;;;;;;;;;;5075419;28;20408;-69
2022/01/31 09:54:56;;;;;;;2.83;1.77;;;;;;;;;;5075314;28;20396;-69
2022/01/31 09:57:21;;;;;;;2.07;1.50;;;;;;;;;;5075507;28;20956;-67
2022/01/31 09:59:48;;;;;;;1.70;1.40;;;;;;;;;;5075446;28;20451;-67
2022/01/31 10:02:17;;;;;;;2.90;1.60;;;;;;;;;;5074932;28;20535;-67
2022/01/31 10:04:44;;;;;;;2.27;1.60;;;;;;;;;;5075394;28;20405;-70
2022/01/31 10:07:13;;;;;;;2.23;2.03;;;;;;;;;;5057374;28;20418;-67
2022/01/31 10:09:39;;;;;;;2.40;2.20;;;;;;;;;;5075296;28;20897;-67
2022/01/31 10:12:09;;;;;;;1.87;1.73;;;;;;;;;;5075080;28;20497;-69
2022/01/31 10:17:25;;;;;;;2.20;1.50;;;;;;;;;;5075417;28;20409;-73
2022/01/31 10:19:55;;;;;;;4.87;1.60;;;;;;;;;;5075089;28;20905;-73
2022/01/31 10:22:22;;;;;;;5.57;1.97;;;;;;;;;;5074947;28;20963;-71
2022/01/31 10:24:49;;;;;;;2.50;1.73;;;;;;;;;;5074878;28;20441;-72
2022/01/31 10:27:16;;;;;;;2.33;1.50;;;;;;;;;;5056875;28;20409;-73
2022/01/31 10:29:47;;;;;;;2.50;1.80;;;;;;;;;;5075052;28;20415;-73
2022/01/31 10:32:21;;;;;;;4.10;1.87;;;;;;;;;;5056873;28;20515;-69
2022/01/31 10:34:51;;;;;;;3.83;1.63;;;;;;;;;;5074733;28;20405;-68
2022/01/31 10:37:19;;;;;;;2.70;2.03;;;;;;;;;;5074377;28;20489;-73
2022/01/31 10:56:42;;;;;;;1.83;1.70;;;;;;;;;;5074421;28;20830;-68
2022/01/31 10:59:08;;;;;;;5.17;1.80;;;;;;;;;;5074250;28;20405;-69
2022/01/31 11:01:34;;;;;;;2.67;1.70;;;;;;;;;;5073968;28;20464;-69
2022/01/31 11:04:04;;;;;;;4.50;1.50;;;;;;;;;;5074236;28;20405;-68
2022/01/31 11:06:30;;;;;;;1.23;1.13;;;;;;;;;;5074202;28;20413;-70
2022/01/31 11:09:01;;;;;;;1.73;1.63;;;;;;;;;;5074298;28;20447;-69
2022/01/31 11:11:27;;;;;;;1.70;1.60;;;;;;;;;;5074101;28;20405;-74
2022/01/31 11:13:55;;;;;;;2.57;1.40;;;;;;;;;;5074073;28;20409;-69
2022/01/31 11:16:21;;;;;;;1.67;1.43;;;;;;;;;;5055969;28;20429;-68
2022/01/31 11:18:47;;;;;;;3.13;1.97;;;;;;;;;;5073907;28;20493;-72
2022/01/31 11:21:14;;;;;;;2.17;1.23;;;;;;;;;;5073839;28;20464;-68
2022/01/31 11:23:43;;;;;;;3.00;1.53;;;;;;;;;;5055852;28;20413;-71
2022/01/31 11:26:10;;;;;;;2.17;1.40;;;;;;;;;;5055816;28;20427;-73
2022/01/31 11:28:39;;;;;;;6.03;1.63;;;;;;;;;;5055778;28;20930;-70
2022/01/31 11:31:05;;;;;;;2.63;1.50;;;;;;;;;;5073551;28;20501;-69
2022/01/31 11:33:31;;;;;;;3.70;1.60;;;;;;;;;;5056023;28;20454;-72
2022/01/31 11:35:58;;;;;;;1.47;1.20;;;;;;;;;;5073664;28;20402;-70
2022/01/31 11:38:24;;;;;;;4.37;1.70;;;;;;;;;;5073585;28;20467;-69
2022/01/31 11:40:51;;;;;;;4.90;1.73;;;;;;;;;;5073528;28;20952;-71
2022/01/31 11:43:18;;;;;;;2.20;1.30;;;;;;;;;;5073599;28;20459;-72
2022/01/31 11:45:45;;;;;;;2.57;1.33;;;;;;;;;;5073499;28;20409;-68
2022/01/31 11:48:19;;;;;;;2.40;1.80;;;;;;;;;;5072631;28;20463;-69
2022/01/31 11:50:48;;;;;;;2.70;1.40;;;;;;;;;;5073354;28;20441;-69
2022/01/31 11:53:14;;;;;;;2.07;1.20;;;;;;;;;;5055548;28;20498;-68
2022/01/31 11:55:41;;;;;;;3.23;1.37;;;;;;;;;;5073288;28;20406;-69
2022/01/31 11:58:15;;;;;;;1.70;1.20;;;;;;;;;;5073328;28;20413;-69
2022/01/31 12:00:42;;;;;;;1.70;1.10;;;;;;;;;;5073274;28;20491;-71
2022/01/31 12:03:09;;;;;;;1.30;1.20;;;;;;;;;;5073084;28;20516;-68
2022/01/31 12:05:36;;;;;;;3.50;1.40;;;;;;;;;;5073163;28;20739;-74
2022/01/31 12:08:05;;;;;;;1.10;1.10;;;;;;;;;;5055250;28;20782;-76
2022/01/31 12:10:35;;;;;;;3.77;1.17;;;;;;;;;;5073121;28;20559;-68
2022/01/31 12:16:02;;;;;;;5.17;1.17;;;;;;;;;;5073015;28;20413;-70
2022/01/31 12:18:57;;;;;;;2.70;1.57;;;;;;;;;;5072598;28;20410;-70
2022/01/31 12:24:21;;;;;;;1.60;1.43;;;;;;;;;;5073358;28;20446;-75
2022/01/31 12:27:05;;;;;;;1.63;1.40;;;;;;;;;;5073108;28;20816;-69
2022/01/31 12:29:32;;;;;;;2.33;1.43;;;;;;;;;;5073128;28;20399;-70
2022/01/31 12:32:09;;;;;;;2.30;1.70;;;;;;;;;;5072779;28;20434;-67
2022/01/31 12:34:36;;;;;;;2.97;1.30;;;;;;;;;;5072916;28;20393;-70
2022/01/31 12:37:21;;;;;;;4.93;1.23;;;;;;;;;;5072994;28;20510;-73
2022/01/31 12:40:04;;;;;;;1.40;1.30;;;;;;;;;;5073005;28;20406;-70
2022/01/31 12:42:53;;;;;;;2.40;1.50;;;;;;;;;;5072861;28;20976;-73
2022/01/31 12:45:31;;;;;;;2.00;1.73;;;;;;;;;;5055009;28;20439;-73
2022/01/31 12:48:12;;;;;;;2.40;1.20;;;;;;;;;;5054893;28;20416;-77
2022/01/31 12:50:41;;;;;;;1.70;1.10;;;;;;;;;;5072706;28;20409;-72
2022/01/31 12:53:35;;;;;;;5.13;1.40;;;;;;;;;;5072629;28;20406;-71
2022/01/31 12:56:01;;;;;;;3.03;1.40;;;;;;;;;;5061025;28;20420;-69
2022/01/31 12:58:31;;;;;;;3.10;1.63;;;;;;;;;;5072663;28;20443;-69
2022/01/31 13:00:57;;;;;;;2.20;1.40;;;;;;;;;;5076520;28;20465;-69
2022/01/31 13:03:33;;;;;;;4.60;1.27;;;;;;;;;;5089005;28;20480;-75
2022/01/31 13:05:59;;;;;;;2.03;1.60;;;;;;;;;;5096744;28;20418;-73
2022/01/31 13:08:25;;;;;;;5.07;2.03;;;;;;;;;;5096636;28;20503;-76
2022/01/31 13:10:52;;;;;;;2.37;1.40;;;;;;;;;;5096696;28;20450;-75
2022/01/31 13:13:31;;;;;;;3.23;2.03;;;;;;;;;;5096655;28;20420;-73
2022/01/31 13:16:03;;;;;;;2.73;1.37;;;;;;;;;;5096611;28;20404;-75
2022/01/31 13:18:32;;;;;;;2.90;1.60;;;;;;;;;;5096574;28;20441;-75
2022/01/31 13:20:59;;;;;;;2.63;1.37;;;;;;;;;;5096465;28;20464;-74
2022/01/31 13:23:26;;;;;;;2.23;1.50;;;;;;;;;;5096447;28;20409;-74
2022/01/31 13:25:59;;;;;;;1.97;1.30;;;;;;;;;;5096256;28;20403;-71
2022/01/31 13:28:25;;;;;;;2.97;1.20;;;;;;;;;;5096116;28;20500;-69
2022/01/31 13:30:51;;;;;;;1.90;1.43;;;;;;;;;;5096082;28;20417;-71
2022/01/31 13:33:18;;;;;;;2.43;1.10;;;;;;;;;;5096192;28;20508;-68
2022/01/31 13:35:44;;;;;;;2.40;1.50;;;;;;;;;;5096068;28;20407;-70
2022/01/31 13:38:12;;;;;;;2.80;1.47;;;;;;;;;;5094880;28;20919;-69
2022/01/31 13:40:44;;;;;;;2.40;1.03;;;;;;;;;;5094603;28;20465;-72
2022/01/31 13:43:13;;;;;;;6.23;1.60;;;;;;;;;;5096089;28;20512;-68
2022/01/31 13:45:48;;;;;;;1.93;1.20;;;;;;;;;;5095833;28;20401;-72
2022/01/31 13:48:30;;;;;;;5.20;1.40;;;;;;;;;;5095922;28;20408;-70
2022/01/31 13:51:00;;;;;;;2.40;1.20;;;;;;;;;;5095667;28;20396;-68
2022/01/31 13:53:36;;;;;;;5.10;1.13;;;;;;;;;;5094353;28;20415;-70
2022/01/31 13:56:03;;;;;;;0.90;0.90;;;;;;;;;;5095539;28;20408;-69
2022/01/31 13:58:30;;;;;;;2.30;1.80;;;;;;;;;;5095667;28;20827;-69
2022/01/31 14:00:57;;;;;;;2.20;1.60;;;;;;;;;;5095675;28;20464;-68
2022/01/31 14:03:24;;;;;;;1.23;1.10;;;;;;;;;;5078584;28;20461;-74
2022/01/31 14:06:00;;;;;;;3.07;1.37;;;;;;;;;;5057448;28;20451;-73
2022/01/31 14:08:28;;;;;;;1.20;0.93;;;;;;;;;;5075320;28;20521;-75
2022/01/31 14:11:07;;;;;;;1.40;1.20;;;;;;;;;;5074425;28;20405;-75
2022/01/31 14:13:35;;;;;;;4.00;1.50;;;;;;;;;;5057181;28;20408;-74
2022/01/31 14:16:01;;;;;;;1.73;1.17;;;;;;;;;;5075048;28;20418;-70
2022/01/31 14:18:30;;;;;;;2.00;1.30;;;;;;;;;;5075179;28;20397;-73
2022/01/31 14:20:56;;;;;;;4.43;1.37;;;;;;;;;;5057035;28;20468;-74
2022/01/31 14:23:22;;;;;;;3.73;1.50;;;;;;;;;;5056817;28;20425;-75
2022/01/31 14:25:49;;;;;;;1.33;0.80;;;;;;;;;;5074878;28;20402;-75
2022/01/31 14:28:16;;;;;;;1.57;1.17;;;;;;;;;;5074955;28;20414;-75
2022/01/31 14:30:52;;;;;;;2.60;1.40;;;;;;;;;;5074859;28;20406;-73
2022/01/31 14:33:22;;;;;;;5.43;1.43;;;;;;;;;;5074943;28;20417;-74
2022/01/31 14:35:48;;;;;;;2.40;1.43;;;;;;;;;;5056882;28;20423;-76
2022/01/31 14:38:20;;;;;;;4.90;1.60;;;;;;;;;;5056842;28;21050;-74
2022/01/31 14:49:09;;;;;;;3.13;1.20;;;;;;;;;;5074731;28;20408;-70
2022/01/31 14:51:36;;;;;;;1.10;0.90;;;;;;;;;;5074402;28;20408;-70
2022/01/31 14:54:07;;;;;;;4.43;1.20;;;;;;;;;;5074530;28;20497;-69
2022/01/31 14:56:33;;;;;;;2.50;1.30;;;;;;;;;;5074340;28;20409;-74
2022/01/31 14:59:00;;;;;;;2.00;1.40;;;;;;;;;;5074222;28;20410;-71
2022/01/31 15:01:27;;;;;;;2.90;1.83;;;;;;;;;;5074043;28;20507;-73
2022/01/31 15:03:53;;;;;;;5.57;1.47;;;;;;;;;;5074179;28;20415;-70
2022/01/31 15:06:19;;;;;;;1.80;1.13;;;;;;;;;;5074070;28;20489;-72
2022/01/31 15:08:45;;;;;;;3.57;1.40;;;;;;;;;;5074141;28;20495;-74
2022/01/31 15:11:11;;;;;;;4.77;1.40;;;;;;;;;;5056027;28;20452;-71
2022/01/31 15:13:38;;;;;;;3.67;1.60;;;;;;;;;;5074089;28;20402;-74
2022/01/31 15:16:07;;;;;;;2.87;1.30;;;;;;;;;;5073918;28;20417;-73
2022/01/31 15:18:37;;;;;;;4.37;1.50;;;;;;;;;;5056129;28;20401;-73
2022/01/31 15:21:07;;;;;;;3.23;1.80;;;;;;;;;;5073956;28;20792;-76
2022/01/31 15:23:42;;;;;;;4.10;1.60;;;;;;;;;;5073827;28;20417;-75